x

Matinicus Rock, Me (mism1) Weather Station

9:00 - Wed 3rd Jun 2015 All times are EDT. -4 hours from GMT.

  • Wind
    11mph, 14mph gusts
  • Air Temp 46°f
  • Sea Pressure 1023.3mb
  • Matinicus Rock, Me
  • Matinicus Rock, Me

More Historic Weather Station data

Upgrade to MSW Pro to gain access to the past 30 days of data for over 8000 Wavebouys and Weather Stations around the globe.

Join Pro

Comparision Forecast

View Surf forecast
   
mer. 06/03 9:00 11 14 mph 1023.3mb 46f
8:00 11 13 mph 1022.9mb 45f
7:00 10 11 mph 1022.8mb 44f
6:00 16 17 mph 1022.3mb 45f
5:00 9 10 mph 1021.9mb 45f
4:00 13 14 mph 1021.6mb 46f
3:00 15 16 mph 1021.4mb 45f
2:00 10 11 mph 1021.2mb 45f
1:00 13 14 mph 1021.4mb 46f
12:00 5
mph
1021.2mb 44f
mar. 06/02 11:00 6
mph
1021.5mb 44f
10:00 10
mph
1021.8mb 43f
9:00 15 16 mph 1021.4mb 43f
8:00 21 24 mph 1021.1mb 43f
7:00 24 26 mph 1021.1mb 43f
6:00 22 25 mph 1020.7mb 44f
5:00 26 30 mph 1020.5mb 44f
3:00 30 33 mph 1021.5mb 43f
2:00 25 29 mph 1021.8mb 44f
1:00 28 31 mph 1022mb 44f
12:00 31 36 mph 1021.3mb 44f
11:00 31 33 mph 1022.1mb 44f
10:00 26 30 mph 1023mb 44f
9:00 26 30 mph 1023.1mb 44f
8:00 28 29 mph 1023mb 43f
7:00 26 30 mph 1022.6mb 44f
6:00 31 33 mph 1022.2mb 44f
5:00 29 31 mph 1022.8mb 43f
4:00 30 32 mph 1023mb 43f
3:00 26 29 mph 1023.4mb 44f
2:00 23 25 mph 1024mb 44f
1:00 22 24 mph 1024.9mb 44f
12:00 22 24 mph 1025.7mb 44f
lun. 06/01 11:00 25 28 mph 1025.7mb 44f
10:00 26 29 mph 1026mb 44f
9:00 26 30 mph 1026.1mb 45f
8:00 33 36 mph 1025.4mb 44f
7:00 33 36 mph 1025.8mb 44f
6:00 29 33 mph 1025.7mb 45f
5:00 32 36 mph 1025.6mb 45f
4:00 29 32 mph 1026mb 45f
3:00 28 31 mph 1026mb 45f
2:00 29 33 mph 1026.2mb 45f
1:00 26 30 mph 1026.2mb 44f
12:00 30 34 mph 1025.5mb 44f
11:00 31 33 mph 1025.5mb 44f
10:00 30 32 mph 1025.3mb 45f
9:00 26 30 mph 1026.2mb 45f
8:00 28 30 mph 1025.6mb 45f
7:00 23 24 mph 1025.4mb 46f
6:00 23 26 mph 1025.4mb 46f
5:00 29 32 mph 1024mb 46f
4:00 22 25 mph 1024.5mb 47f
3:00 23 25 mph 1024.2mb 47f
2:00 21 23 mph 1024.2mb 47f
1:00 17 20 mph 1025mb 46f
12:00 17
mph
1024.9mb 47f
dim. 05/31 11:00 15
mph
1025.3mb 47f
10:00 13 14 mph 1025.2mb 47f
9:00 14 15 mph 1024.8mb 47f
8:00 18 21 mph 1024.2mb 47f
7:00 23 25 mph 1023.8mb 47f
6:00 22 24 mph 1023.3mb 48f
5:00 21 24 mph 1022.9mb 48f
4:00 16 20 mph 1023.7mb 47f
3:00 16 18 mph 1023mb 48f
2:00 21 22 mph 1020.8mb 49f
1:00 25 26 mph 1020.6mb 49f
12:00 24 28 mph 1019.6mb 50f
11:00 25 26 mph 1018.3mb 53f
10:00 17
mph
1017.1mb 52f
9:00 23 24 mph 1016.3mb 52f
8:00 22 23 mph 1015.6mb 54f
7:00 28 29 mph 1015mb 54f
6:00 28 29 mph 1014.3mb 54f
5:00 26 29 mph 1014.1mb 53f
4:00 31 33 mph 1014.1mb 54f
3:00 30 32 mph 1014.5mb 54f
2:00 30 32 mph 1014.6mb 55f
1:00 32 33 mph 1015.1mb 55f
12:00 36 38 mph 1015mb 56f
sam. 05/30 11:00 34 37 mph 1015mb 55f
10:00 32 36 mph 1014.8mb 56f
9:00 32 37 mph 1014.9mb 56f
8:00 33 36 mph 1014.8mb 56f
7:00 33 36 mph 1015.2mb 56f
6:00 34 37 mph 1015.4mb 56f
5:00 29 31 mph 1016.2mb 56f
4:00 28 29 mph 1017mb 55f
3:00 28 30 mph 1017.8mb 55f